sensor_id;sensor_type;location;lat;lon;timestamp;P1;durP1;ratioP1;P2;durP2;ratioP2
42770;SDS011;28426;42.872;25.314;2023-12-28T00:01:31;46.42;;;25.30;;
42770;SDS011;28426;42.872;25.314;2023-12-28T00:04:03;42.63;;;23.58;;
42770;SDS011;28426;42.872;25.314;2023-12-28T00:06:35;31.90;;;17.35;;
42770;SDS011;28426;42.872;25.314;2023-12-28T00:09:08;25.00;;;13.80;;
42770;SDS011;28426;42.872;25.314;2023-12-28T00:11:40;26.38;;;12.93;;
42770;SDS011;28426;42.872;25.314;2023-12-28T00:14:15;18.50;;;9.57;;
42770;SDS011;28426;42.872;25.314;2023-12-28T00:16:48;17.95;;;7.18;;
42770;SDS011;28426;42.872;25.314;2023-12-28T00:19:20;14.00;;;6.60;;
42770;SDS011;28426;42.872;25.314;2023-12-28T00:21:52;11.25;;;5.63;;
42770;SDS011;28426;42.872;25.314;2023-12-28T00:24:24;12.73;;;5.85;;
42770;SDS011;28426;42.872;25.314;2023-12-28T00:26:55;12.02;;;5.63;;
42770;SDS011;28426;42.872;25.314;2023-12-28T00:29:28;14.13;;;7.10;;
42770;SDS011;28426;42.872;25.314;2023-12-28T00:32:01;14.88;;;7.47;;
42770;SDS011;28426;42.872;25.314;2023-12-28T00:34:32;19.42;;;9.10;;
42770;SDS011;28426;42.872;25.314;2023-12-28T00:37:05;16.25;;;8.45;;
42770;SDS011;28426;42.872;25.314;2023-12-28T00:39:36;19.90;;;9.95;;
42770;SDS011;28426;42.872;25.314;2023-12-28T00:42:09;18.15;;;8.65;;
42770;SDS011;28426;42.872;25.314;2023-12-28T00:44:43;17.63;;;8.40;;
42770;SDS011;28426;42.872;25.314;2023-12-28T00:47:14;16.67;;;8.07;;
42770;SDS011;28426;42.872;25.314;2023-12-28T00:49:45;13.32;;;6.45;;
42770;SDS011;28426;42.872;25.314;2023-12-28T00:52:16;12.95;;;6.30;;
42770;SDS011;28426;42.872;25.314;2023-12-28T00:54:47;12.13;;;6.15;;
42770;SDS011;28426;42.872;25.314;2023-12-28T00:57:18;11.98;;;5.22;;
42770;SDS011;28426;42.872;25.314;2023-12-28T00:59:51;12.20;;;5.50;;
42770;SDS011;28426;42.872;25.314;2023-12-28T01:02:22;11.60;;;5.32;;
42770;SDS011;28426;42.872;25.314;2023-12-28T01:04:53;9.60;;;4.43;;
42770;SDS011;28426;42.872;25.314;2023-12-28T01:07:25;13.13;;;5.35;;
42770;SDS011;28426;42.872;25.314;2023-12-28T01:09:56;12.07;;;5.05;;
42770;SDS011;28426;42.872;25.314;2023-12-28T01:12:30;12.02;;;6.00;;
42770;SDS011;28426;42.872;25.314;2023-12-28T01:15:04;14.02;;;7.88;;
42770;SDS011;28426;42.872;25.314;2023-12-28T01:17:35;17.73;;;6.67;;
42770;SDS011;28426;42.872;25.314;2023-12-28T01:20:07;12.48;;;5.75;;
42770;SDS011;28426;42.872;25.314;2023-12-28T01:22:38;14.68;;;6.45;;
42770;SDS011;28426;42.872;25.314;2023-12-28T01:25:10;12.43;;;6.32;;
42770;SDS011;28426;42.872;25.314;2023-12-28T01:27:41;12.52;;;5.95;;
42770;SDS011;28426;42.872;25.314;2023-12-28T01:30:14;11.80;;;5.95;;
42770;SDS011;28426;42.872;25.314;2023-12-28T01:32:47;12.40;;;6.40;;
42770;SDS011;28426;42.872;25.314;2023-12-28T01:35:19;13.57;;;6.40;;
42770;SDS011;28426;42.872;25.314;2023-12-28T01:37:52;10.85;;;5.75;;
42770;SDS011;28426;42.872;25.314;2023-12-28T01:40:24;14.85;;;6.18;;
42770;SDS011;28426;42.872;25.314;2023-12-28T01:42:56;12.65;;;6.00;;
42770;SDS011;28426;42.872;25.314;2023-12-28T01:45:31;14.07;;;7.63;;
42770;SDS011;28426;42.872;25.314;2023-12-28T01:48:03;11.40;;;5.47;;
42770;SDS011;28426;42.872;25.314;2023-12-28T01:50:36;12.43;;;6.80;;
42770;SDS011;28426;42.872;25.314;2023-12-28T01:53:08;12.95;;;6.30;;
42770;SDS011;28426;42.872;25.314;2023-12-28T01:55:41;11.27;;;5.35;;
42770;SDS011;28426;42.872;25.314;2023-12-28T01:58:14;10.48;;;4.55;;
42770;SDS011;28426;42.872;25.314;2023-12-28T02:00:49;10.85;;;4.65;;
42770;SDS011;28426;42.872;25.314;2023-12-28T02:03:21;13.50;;;5.10;;
42770;SDS011;28426;42.872;25.314;2023-12-28T02:05:54;8.75;;;4.68;;
42770;SDS011;28426;42.872;25.314;2023-12-28T02:08:28;11.30;;;5.15;;
42770;SDS011;28426;42.872;25.314;2023-12-28T02:11:00;10.95;;;4.80;;
42770;SDS011;28426;42.872;25.314;2023-12-28T02:13:35;12.05;;;4.40;;
42770;SDS011;28426;42.872;25.314;2023-12-28T02:16:11;11.73;;;4.90;;
42770;SDS011;28426;42.872;25.314;2023-12-28T02:18:50;14.57;;;7.60;;
42770;SDS011;28426;42.872;25.314;2023-12-28T02:23:56;10.15;;;4.75;;
42770;SDS011;28426;42.872;25.314;2023-12-28T02:26:32;9.63;;;4.28;;
42770;SDS011;28426;42.872;25.314;2023-12-28T02:29:03;6.38;;;3.20;;
42770;SDS011;28426;42.872;25.314;2023-12-28T02:31:37;11.35;;;5.03;;
42770;SDS011;28426;42.872;25.314;2023-12-28T02:34:18;10.70;;;3.83;;
42770;SDS011;28426;42.872;25.314;2023-12-28T02:36:58;8.63;;;3.58;;
42770;SDS011;28426;42.872;25.314;2023-12-28T02:39:33;10.68;;;4.10;;
42770;SDS011;28426;42.872;25.314;2023-12-28T02:42:08;7.40;;;4.18;;
42770;SDS011;28426;42.872;25.314;2023-12-28T02:44:38;10.02;;;4.53;;
42770;SDS011;28426;42.872;25.314;2023-12-28T02:47:10;9.30;;;4.00;;
42770;SDS011;28426;42.872;25.314;2023-12-28T02:49:43;8.43;;;4.18;;
42770;SDS011;28426;42.872;25.314;2023-12-28T02:52:15;9.18;;;4.00;;
42770;SDS011;28426;42.872;25.314;2023-12-28T02:54:47;9.43;;;3.90;;
42770;SDS011;28426;42.872;25.314;2023-12-28T02:57:25;10.80;;;4.30;;
42770;SDS011;28426;42.872;25.314;2023-12-28T02:59:57;9.30;;;4.85;;
42770;SDS011;28426;42.872;25.314;2023-12-28T03:02:32;9.52;;;4.57;;
42770;SDS011;28426;42.872;25.314;2023-12-28T03:05:05;14.80;;;5.53;;
42770;SDS011;28426;42.872;25.314;2023-12-28T03:07:38;10.48;;;3.92;;
42770;SDS011;28426;42.872;25.314;2023-12-28T03:10:10;8.93;;;3.63;;
42770;SDS011;28426;42.872;25.314;2023-12-28T03:12:47;10.00;;;4.30;;
42770;SDS011;28426;42.872;25.314;2023-12-28T03:15:18;7.47;;;3.42;;
42770;SDS011;28426;42.872;25.314;2023-12-28T03:17:49;8.90;;;3.30;;
42770;SDS011;28426;42.872;25.314;2023-12-28T03:20:20;12.38;;;3.90;;
42770;SDS011;28426;42.872;25.314;2023-12-28T03:22:51;10.40;;;4.68;;
42770;SDS011;28426;42.872;25.314;2023-12-28T03:25:22;8.05;;;4.20;;
42770;SDS011;28426;42.872;25.314;2023-12-28T03:27:56;9.30;;;4.22;;
42770;SDS011;28426;42.872;25.314;2023-12-28T03:30:27;9.38;;;3.95;;
42770;SDS011;28426;42.872;25.314;2023-12-28T03:32:59;9.82;;;3.90;;
42770;SDS011;28426;42.872;25.314;2023-12-28T03:35:30;10.32;;;4.72;;
42770;SDS011;28426;42.872;25.314;2023-12-28T03:38:01;8.57;;;4.47;;
42770;SDS011;28426;42.872;25.314;2023-12-28T03:40:32;10.43;;;4.88;;
42770;SDS011;28426;42.872;25.314;2023-12-28T03:43:05;20.10;;;5.10;;
42770;SDS011;28426;42.872;25.314;2023-12-28T03:45:36;13.32;;;4.88;;
42770;SDS011;28426;42.872;25.314;2023-12-28T03:48:07;8.07;;;4.15;;
42770;SDS011;28426;42.872;25.314;2023-12-28T03:50:38;11.82;;;4.30;;
42770;SDS011;28426;42.872;25.314;2023-12-28T03:53:09;10.32;;;4.10;;
42770;SDS011;28426;42.872;25.314;2023-12-28T03:55:40;9.52;;;3.70;;
42770;SDS011;28426;42.872;25.314;2023-12-28T03:58:14;8.20;;;4.57;;
42770;SDS011;28426;42.872;25.314;2023-12-28T04:00:45;11.35;;;4.72;;
42770;SDS011;28426;42.872;25.314;2023-12-28T04:03:16;9.63;;;4.85;;
42770;SDS011;28426;42.872;25.314;2023-12-28T04:05:47;10.45;;;4.95;;
42770;SDS011;28426;42.872;25.314;2023-12-28T04:08:17;9.95;;;5.07;;
42770;SDS011;28426;42.872;25.314;2023-12-28T04:10:48;16.67;;;7.25;;
42770;SDS011;28426;42.872;25.314;2023-12-28T04:13:22;13.98;;;6.32;;
42770;SDS011;28426;42.872;25.314;2023-12-28T04:15:52;13.55;;;6.80;;
42770;SDS011;28426;42.872;25.314;2023-12-28T04:18:23;12.57;;;6.70;;
42770;SDS011;28426;42.872;25.314;2023-12-28T04:20:54;23.23;;;13.50;;
42770;SDS011;28426;42.872;25.314;2023-12-28T04:23:25;22.55;;;11.93;;
42770;SDS011;28426;42.872;25.314;2023-12-28T04:25:56;24.05;;;12.90;;
42770;SDS011;28426;42.872;25.314;2023-12-28T04:28:31;22.42;;;11.77;;
42770;SDS011;28426;42.872;25.314;2023-12-28T04:31:03;16.48;;;8.77;;
42770;SDS011;28426;42.872;25.314;2023-12-28T04:33:35;20.63;;;10.63;;
42770;SDS011;28426;42.872;25.314;2023-12-28T04:36:07;16.80;;;10.32;;
42770;SDS011;28426;42.872;25.314;2023-12-28T04:38:39;15.80;;;8.25;;
42770;SDS011;28426;42.872;25.314;2023-12-28T04:41:10;17.70;;;9.57;;
42770;SDS011;28426;42.872;25.314;2023-12-28T04:43:44;20.33;;;9.70;;
42770;SDS011;28426;42.872;25.314;2023-12-28T04:46:15;18.42;;;10.77;;
42770;SDS011;28426;42.872;25.314;2023-12-28T04:48:47;21.23;;;11.23;;
42770;SDS011;28426;42.872;25.314;2023-12-28T04:51:20;18.55;;;10.63;;
42770;SDS011;28426;42.872;25.314;2023-12-28T04:53:51;20.65;;;10.43;;
42770;SDS011;28426;42.872;25.314;2023-12-28T04:56:23;15.80;;;8.60;;
42770;SDS011;28426;42.872;25.314;2023-12-28T04:58:57;17.13;;;10.13;;
42770;SDS011;28426;42.872;25.314;2023-12-28T05:01:28;21.58;;;11.55;;
42770;SDS011;28426;42.872;25.314;2023-12-28T05:04:00;22.02;;;10.18;;
42770;SDS011;28426;42.872;25.314;2023-12-28T05:06:31;20.45;;;10.60;;
42770;SDS011;28426;42.872;25.314;2023-12-28T05:09:02;21.90;;;10.23;;
42770;SDS011;28426;42.872;25.314;2023-12-28T05:11:34;13.63;;;8.30;;
42770;SDS011;28426;42.872;25.314;2023-12-28T05:14:08;13.82;;;7.35;;
42770;SDS011;28426;42.872;25.314;2023-12-28T05:16:39;14.15;;;6.97;;
42770;SDS011;28426;42.872;25.314;2023-12-28T05:19:11;15.00;;;7.30;;
42770;SDS011;28426;42.872;25.314;2023-12-28T05:21:42;13.57;;;7.22;;
42770;SDS011;28426;42.872;25.314;2023-12-28T05:24:14;13.55;;;6.25;;
42770;SDS011;28426;42.872;25.314;2023-12-28T05:26:47;13.65;;;6.50;;
42770;SDS011;28426;42.872;25.314;2023-12-28T05:29:21;11.32;;;5.72;;
42770;SDS011;28426;42.872;25.314;2023-12-28T05:31:54;12.45;;;6.25;;
42770;SDS011;28426;42.872;25.314;2023-12-28T05:34:28;14.90;;;6.10;;
42770;SDS011;28426;42.872;25.314;2023-12-28T05:37:00;12.00;;;7.00;;
42770;SDS011;28426;42.872;25.314;2023-12-28T05:39:32;16.58;;;8.13;;
42770;SDS011;28426;42.872;25.314;2023-12-28T05:42:04;12.88;;;6.55;;
42770;SDS011;28426;42.872;25.314;2023-12-28T05:44:41;16.90;;;7.35;;
42770;SDS011;28426;42.872;25.314;2023-12-28T05:47:15;16.95;;;8.13;;
42770;SDS011;28426;42.872;25.314;2023-12-28T05:49:49;13.93;;;7.28;;
42770;SDS011;28426;42.872;25.314;2023-12-28T05:52:22;15.05;;;8.25;;
42770;SDS011;28426;42.872;25.314;2023-12-28T05:55:00;14.68;;;7.57;;
42770;SDS011;28426;42.872;25.314;2023-12-28T05:57:35;16.25;;;9.10;;
42770;SDS011;28426;42.872;25.314;2023-12-28T06:00:16;17.88;;;8.85;;
42770;SDS011;28426;42.872;25.314;2023-12-28T06:02:50;16.05;;;8.05;;
42770;SDS011;28426;42.872;25.314;2023-12-28T06:05:25;12.52;;;7.70;;
42770;SDS011;28426;42.872;25.314;2023-12-28T06:08:01;16.33;;;8.23;;
42770;SDS011;28426;42.872;25.314;2023-12-28T06:10:34;14.68;;;8.77;;
42770;SDS011;28426;42.872;25.314;2023-12-28T06:13:07;16.77;;;9.18;;
42770;SDS011;28426;42.872;25.314;2023-12-28T06:15:41;16.92;;;8.60;;
42770;SDS011;28426;42.872;25.314;2023-12-28T06:18:17;19.65;;;11.55;;
42770;SDS011;28426;42.872;25.314;2023-12-28T06:20:54;19.52;;;10.93;;
42770;SDS011;28426;42.872;25.314;2023-12-28T06:23:29;15.68;;;8.60;;
42770;SDS011;28426;42.872;25.314;2023-12-28T06:26:06;21.15;;;8.65;;
42770;SDS011;28426;42.872;25.314;2023-12-28T06:28:44;26.02;;;13.93;;
42770;SDS011;28426;42.872;25.314;2023-12-28T06:31:24;19.63;;;11.93;;
42770;SDS011;28426;42.872;25.314;2023-12-28T06:33:59;28.65;;;14.95;;
42770;SDS011;28426;42.872;25.314;2023-12-28T06:36:35;30.83;;;16.67;;
42770;SDS011;28426;42.872;25.314;2023-12-28T06:39:11;27.10;;;14.90;;
42770;SDS011;28426;42.872;25.314;2023-12-28T06:41:50;27.63;;;15.57;;
42770;SDS011;28426;42.872;25.314;2023-12-28T06:44:22;32.03;;;19.08;;
42770;SDS011;28426;42.872;25.314;2023-12-28T06:46:59;33.58;;;18.17;;
42770;SDS011;28426;42.872;25.314;2023-12-28T06:49:35;34.67;;;18.65;;
42770;SDS011;28426;42.872;25.314;2023-12-28T06:52:13;14.52;;;8.43;;
42770;SDS011;28426;42.872;25.314;2023-12-28T06:54:46;22.02;;;11.45;;
42770;SDS011;28426;42.872;25.314;2023-12-28T06:57:20;22.10;;;11.15;;
42770;SDS011;28426;42.872;25.314;2023-12-28T06:59:54;19.80;;;12.02;;
42770;SDS011;28426;42.872;25.314;2023-12-28T07:02:37;31.42;;;18.80;;
42770;SDS011;28426;42.872;25.314;2023-12-28T07:05:10;41.63;;;25.75;;
42770;SDS011;28426;42.872;25.314;2023-12-28T07:07:43;33.10;;;19.83;;
42770;SDS011;28426;42.872;25.314;2023-12-28T07:10:18;35.60;;;23.17;;
42770;SDS011;28426;42.872;25.314;2023-12-28T07:12:52;29.63;;;19.95;;
42770;SDS011;28426;42.872;25.314;2023-12-28T07:15:29;28.85;;;18.33;;
42770;SDS011;28426;42.872;25.314;2023-12-28T07:18:07;20.92;;;12.40;;
42770;SDS011;28426;42.872;25.314;2023-12-28T07:20:42;18.05;;;10.45;;
42770;SDS011;28426;42.872;25.314;2023-12-28T07:23:16;20.98;;;9.60;;
42770;SDS011;28426;42.872;25.314;2023-12-28T07:25:51;22.67;;;13.82;;
42770;SDS011;28426;42.872;25.314;2023-12-28T07:28:27;21.05;;;11.95;;
42770;SDS011;28426;42.872;25.314;2023-12-28T07:31:06;25.67;;;13.32;;
42770;SDS011;28426;42.872;25.314;2023-12-28T07:33:48;22.77;;;10.43;;
42770;SDS011;28426;42.872;25.314;2023-12-28T07:36:23;29.50;;;15.40;;
42770;SDS011;28426;42.872;25.314;2023-12-28T07:38:56;37.45;;;21.60;;
42770;SDS011;28426;42.872;25.314;2023-12-28T07:41:32;32.00;;;19.88;;
42770;SDS011;28426;42.872;25.314;2023-12-28T07:44:05;19.60;;;11.48;;
42770;SDS011;28426;42.872;25.314;2023-12-28T07:46:38;29.45;;;18.10;;
42770;SDS011;28426;42.872;25.314;2023-12-28T07:49:13;34.88;;;21.65;;
42770;SDS011;28426;42.872;25.314;2023-12-28T07:51:49;39.78;;;26.38;;
42770;SDS011;28426;42.872;25.314;2023-12-28T07:54:25;35.72;;;24.25;;
42770;SDS011;28426;42.872;25.314;2023-12-28T07:56:59;30.57;;;17.80;;
42770;SDS011;28426;42.872;25.314;2023-12-28T07:59:34;29.83;;;18.83;;
42770;SDS011;28426;42.872;25.314;2023-12-28T08:02:11;33.10;;;17.85;;
42770;SDS011;28426;42.872;25.314;2023-12-28T08:04:50;36.65;;;20.52;;
42770;SDS011;28426;42.872;25.314;2023-12-28T08:07:22;31.13;;;16.42;;
42770;SDS011;28426;42.872;25.314;2023-12-28T08:10:00;31.25;;;15.45;;
42770;SDS011;28426;42.872;25.314;2023-12-28T08:12:36;32.22;;;17.80;;
42770;SDS011;28426;42.872;25.314;2023-12-28T08:15:13;28.58;;;15.88;;
42770;SDS011;28426;42.872;25.314;2023-12-28T08:17:49;26.58;;;13.45;;
42770;SDS011;28426;42.872;25.314;2023-12-28T08:20:28;24.75;;;12.48;;
42770;SDS011;28426;42.872;25.314;2023-12-28T08:23:04;21.02;;;11.55;;
42770;SDS011;28426;42.872;25.314;2023-12-28T08:25:46;22.48;;;11.75;;
42770;SDS011;28426;42.872;25.314;2023-12-28T08:28:22;22.40;;;11.50;;
42770;SDS011;28426;42.872;25.314;2023-12-28T08:30:56;21.60;;;10.37;;
42770;SDS011;28426;42.872;25.314;2023-12-28T08:33:28;15.60;;;7.85;;
42770;SDS011;28426;42.872;25.314;2023-12-28T08:36:05;15.50;;;7.05;;
42770;SDS011;28426;42.872;25.314;2023-12-28T08:38:39;13.23;;;6.47;;
42770;SDS011;28426;42.872;25.314;2023-12-28T08:41:17;8.93;;;5.70;;
42770;SDS011;28426;42.872;25.314;2023-12-28T08:43:57;15.80;;;5.50;;
42770;SDS011;28426;42.872;25.314;2023-12-28T08:46:32;29.05;;;7.80;;
42770;SDS011;28426;42.872;25.314;2023-12-28T08:49:06;17.08;;;6.75;;
42770;SDS011;28426;42.872;25.314;2023-12-28T08:51:41;21.40;;;7.35;;
42770;SDS011;28426;42.872;25.314;2023-12-28T08:54:15;19.30;;;6.90;;
42770;SDS011;28426;42.872;25.314;2023-12-28T08:56:48;13.85;;;4.88;;
42770;SDS011;28426;42.872;25.314;2023-12-28T08:59:26;17.25;;;5.30;;
42770;SDS011;28426;42.872;25.314;2023-12-28T09:02:00;15.27;;;5.50;;
42770;SDS011;28426;42.872;25.314;2023-12-28T09:04:34;14.63;;;7.78;;
42770;SDS011;28426;42.872;25.314;2023-12-28T09:07:09;26.73;;;11.07;;
42770;SDS011;28426;42.872;25.314;2023-12-28T09:09:43;20.33;;;10.07;;
42770;SDS011;28426;42.872;25.314;2023-12-28T09:12:19;29.08;;;8.55;;
42770;SDS011;28426;42.872;25.314;2023-12-28T09:14:53;21.88;;;8.48;;
42770;SDS011;28426;42.872;25.314;2023-12-28T09:17:25;42.65;;;10.73;;
42770;SDS011;28426;42.872;25.314;2023-12-28T09:20:03;23.25;;;8.57;;
42770;SDS011;28426;42.872;25.314;2023-12-28T09:22:39;19.35;;;7.97;;
42770;SDS011;28426;42.872;25.314;2023-12-28T09:25:15;29.25;;;8.50;;
42770;SDS011;28426;42.872;25.314;2023-12-28T09:27:51;20.20;;;6.80;;
42770;SDS011;28426;42.872;25.314;2023-12-28T09:30:25;13.10;;;6.18;;
42770;SDS011;28426;42.872;25.314;2023-12-28T09:33:00;22.77;;;10.85;;
42770;SDS011;28426;42.872;25.314;2023-12-28T09:35:33;24.60;;;10.90;;
42770;SDS011;28426;42.872;25.314;2023-12-28T09:38:15;33.33;;;13.82;;
42770;SDS011;28426;42.872;25.314;2023-12-28T09:40:52;23.13;;;8.88;;
42770;SDS011;28426;42.872;25.314;2023-12-28T09:43:29;48.08;;;25.92;;
42770;SDS011;28426;42.872;25.314;2023-12-28T09:46:08;26.35;;;8.00;;
42770;SDS011;28426;42.872;25.314;2023-12-28T09:48:42;22.98;;;9.52;;
42770;SDS011;28426;42.872;25.314;2023-12-28T09:51:19;19.67;;;7.93;;
42770;SDS011;28426;42.872;25.314;2023-12-28T09:53:57;23.33;;;11.50;;
42770;SDS011;28426;42.872;25.314;2023-12-28T09:56:31;19.98;;;9.15;;
42770;SDS011;28426;42.872;25.314;2023-12-28T09:59:06;25.85;;;9.70;;
42770;SDS011;28426;42.872;25.314;2023-12-28T10:01:39;28.17;;;8.50;;
42770;SDS011;28426;42.872;25.314;2023-12-28T10:04:21;23.35;;;7.82;;
42770;SDS011;28426;42.872;25.314;2023-12-28T10:06:59;17.63;;;6.18;;
42770;SDS011;28426;42.872;25.314;2023-12-28T10:09:38;14.02;;;5.70;;
42770;SDS011;28426;42.872;25.314;2023-12-28T10:12:14;22.45;;;6.95;;
42770;SDS011;28426;42.872;25.314;2023-12-28T10:14:50;18.90;;;7.18;;
42770;SDS011;28426;42.872;25.314;2023-12-28T10:17:32;30.05;;;7.20;;
42770;SDS011;28426;42.872;25.314;2023-12-28T10:20:08;22.63;;;6.82;;
42770;SDS011;28426;42.872;25.314;2023-12-28T10:22:43;18.05;;;6.40;;
42770;SDS011;28426;42.872;25.314;2023-12-28T10:25:22;21.25;;;7.05;;
42770;SDS011;28426;42.872;25.314;2023-12-28T10:28:02;17.35;;;6.07;;
42770;SDS011;28426;42.872;25.314;2023-12-28T10:30:37;12.10;;;6.00;;
42770;SDS011;28426;42.872;25.314;2023-12-28T10:33:13;17.30;;;6.10;;
42770;SDS011;28426;42.872;25.314;2023-12-28T10:35:53;17.55;;;6.32;;
42770;SDS011;28426;42.872;25.314;2023-12-28T10:38:31;12.20;;;4.88;;
42770;SDS011;28426;42.872;25.314;2023-12-28T10:41:14;14.98;;;6.05;;
42770;SDS011;28426;42.872;25.314;2023-12-28T10:43:52;17.30;;;5.82;;
42770;SDS011;28426;42.872;25.314;2023-12-28T10:46:39;15.55;;;5.18;;
42770;SDS011;28426;42.872;25.314;2023-12-28T10:49:16;11.68;;;4.97;;
42770;SDS011;28426;42.872;25.314;2023-12-28T10:51:54;15.30;;;5.05;;
42770;SDS011;28426;42.872;25.314;2023-12-28T10:54:32;16.77;;;5.03;;
42770;SDS011;28426;42.872;25.314;2023-12-28T10:57:21;11.15;;;5.63;;
42770;SDS011;28426;42.872;25.314;2023-12-28T11:00:04;13.07;;;5.35;;
42770;SDS011;28426;42.872;25.314;2023-12-28T11:02:45;25.75;;;6.60;;
42770;SDS011;28426;42.872;25.314;2023-12-28T11:05:21;25.15;;;6.82;;
42770;SDS011;28426;42.872;25.314;2023-12-28T11:07:57;22.08;;;6.43;;
42770;SDS011;28426;42.872;25.314;2023-12-28T11:10:36;21.73;;;7.00;;
42770;SDS011;28426;42.872;25.314;2023-12-28T11:13:17;19.58;;;8.07;;
42770;SDS011;28426;42.872;25.314;2023-12-28T11:15:56;31.20;;;9.18;;
42770;SDS011;28426;42.872;25.314;2023-12-28T11:18:32;23.48;;;7.85;;
42770;SDS011;28426;42.872;25.314;2023-12-28T11:21:08;22.17;;;8.00;;
42770;SDS011;28426;42.872;25.314;2023-12-28T11:26:20;33.80;;;9.52;;
42770;SDS011;28426;42.872;25.314;2023-12-28T11:29:04;42.92;;;9.88;;
42770;SDS011;28426;42.872;25.314;2023-12-28T11:31:40;17.80;;;7.72;;
42770;SDS011;28426;42.872;25.314;2023-12-28T11:34:16;17.40;;;9.32;;
42770;SDS011;28426;42.872;25.314;2023-12-28T11:36:52;26.45;;;10.20;;
42770;SDS011;28426;42.872;25.314;2023-12-28T11:39:29;31.30;;;10.20;;
42770;SDS011;28426;42.872;25.314;2023-12-28T11:42:06;33.60;;;11.77;;
42770;SDS011;28426;42.872;25.314;2023-12-28T11:44:43;33.33;;;10.52;;
42770;SDS011;28426;42.872;25.314;2023-12-28T11:47:22;25.35;;;9.80;;
42770;SDS011;28426;42.872;25.314;2023-12-28T11:50:06;33.05;;;10.70;;
42770;SDS011;28426;42.872;25.314;2023-12-28T11:52:41;23.08;;;8.90;;
42770;SDS011;28426;42.872;25.314;2023-12-28T11:55:20;25.05;;;10.60;;
42770;SDS011;28426;42.872;25.314;2023-12-28T11:57:57;25.38;;;11.85;;
42770;SDS011;28426;42.872;25.314;2023-12-28T12:00:36;30.70;;;12.40;;
42770;SDS011;28426;42.872;25.314;2023-12-28T12:03:13;34.20;;;12.15;;
42770;SDS011;28426;42.872;25.314;2023-12-28T12:05:50;35.42;;;12.13;;
42770;SDS011;28426;42.872;25.314;2023-12-28T12:08:27;15.45;;;8.50;;
42770;SDS011;28426;42.872;25.314;2023-12-28T12:11:04;14.05;;;8.20;;
42770;SDS011;28426;42.872;25.314;2023-12-28T12:13:40;12.05;;;6.95;;
42770;SDS011;28426;42.872;25.314;2023-12-28T12:16:18;19.13;;;7.70;;
42770;SDS011;28426;42.872;25.314;2023-12-28T12:18:54;14.38;;;7.38;;
42770;SDS011;28426;42.872;25.314;2023-12-28T12:21:29;20.42;;;7.55;;
42770;SDS011;28426;42.872;25.314;2023-12-28T12:24:07;13.02;;;5.03;;
42770;SDS011;28426;42.872;25.314;2023-12-28T12:26:47;25.05;;;9.10;;
42770;SDS011;28426;42.872;25.314;2023-12-28T12:29:25;16.30;;;6.80;;
42770;SDS011;28426;42.872;25.314;2023-12-28T12:32:02;18.73;;;6.82;;
42770;SDS011;28426;42.872;25.314;2023-12-28T12:34:37;15.75;;;6.35;;
42770;SDS011;28426;42.872;25.314;2023-12-28T12:37:14;14.88;;;6.97;;
42770;SDS011;28426;42.872;25.314;2023-12-28T12:39:51;10.60;;;5.10;;
42770;SDS011;28426;42.872;25.314;2023-12-28T12:42:27;13.88;;;5.63;;
42770;SDS011;28426;42.872;25.314;2023-12-28T12:45:02;26.27;;;6.25;;
42770;SDS011;28426;42.872;25.314;2023-12-28T12:47:40;11.27;;;4.72;;
42770;SDS011;28426;42.872;25.314;2023-12-28T12:50:17;8.80;;;5.47;;
42770;SDS011;28426;42.872;25.314;2023-12-28T12:52:54;14.27;;;5.10;;
42770;SDS011;28426;42.872;25.314;2023-12-28T12:55:29;9.55;;;5.57;;
42770;SDS011;28426;42.872;25.314;2023-12-28T12:58:06;34.33;;;13.27;;
42770;SDS011;28426;42.872;25.314;2023-12-28T13:00:42;37.13;;;12.52;;
42770;SDS011;28426;42.872;25.314;2023-12-28T13:03:22;27.15;;;11.07;;
42770;SDS011;28426;42.872;25.314;2023-12-28T13:06:02;26.60;;;11.93;;
42770;SDS011;28426;42.872;25.314;2023-12-28T13:08:36;30.25;;;13.10;;
42770;SDS011;28426;42.872;25.314;2023-12-28T13:11:13;22.45;;;13.48;;
42770;SDS011;28426;42.872;25.314;2023-12-28T13:13:52;25.05;;;11.13;;
42770;SDS011;28426;42.872;25.314;2023-12-28T13:16:28;24.00;;;9.63;;
42770;SDS011;28426;42.872;25.314;2023-12-28T13:19:08;27.30;;;8.27;;
42770;SDS011;28426;42.872;25.314;2023-12-28T13:21:43;24.17;;;6.65;;
42770;SDS011;28426;42.872;25.314;2023-12-28T13:24:19;24.13;;;6.70;;
42770;SDS011;28426;42.872;25.314;2023-12-28T13:26:53;17.45;;;6.78;;
42770;SDS011;28426;42.872;25.314;2023-12-28T13:29:27;27.40;;;8.55;;
42770;SDS011;28426;42.872;25.314;2023-12-28T13:32:02;23.75;;;6.32;;
42770;SDS011;28426;42.872;25.314;2023-12-28T13:34:37;14.75;;;6.10;;
42770;SDS011;28426;42.872;25.314;2023-12-28T13:37:13;18.08;;;5.82;;
42770;SDS011;28426;42.872;25.314;2023-12-28T13:39:48;15.88;;;5.40;;
42770;SDS011;28426;42.872;25.314;2023-12-28T13:42:22;11.48;;;4.55;;
42770;SDS011;28426;42.872;25.314;2023-12-28T13:44:57;38.20;;;8.60;;
42770;SDS011;28426;42.872;25.314;2023-12-28T13:47:33;33.42;;;10.48;;
42770;SDS011;28426;42.872;25.314;2023-12-28T13:50:13;13.82;;;6.50;;
42770;SDS011;28426;42.872;25.314;2023-12-28T13:52:48;20.15;;;6.88;;
42770;SDS011;28426;42.872;25.314;2023-12-28T13:55:27;31.23;;;8.70;;
42770;SDS011;28426;42.872;25.314;2023-12-28T13:58:03;30.13;;;10.40;;
42770;SDS011;28426;42.872;25.314;2023-12-28T14:00:36;39.20;;;14.35;;
42770;SDS011;28426;42.872;25.314;2023-12-28T14:03:12;28.00;;;12.68;;
42770;SDS011;28426;42.872;25.314;2023-12-28T14:05:52;43.00;;;19.50;;
42770;SDS011;28426;42.872;25.314;2023-12-28T14:08:29;45.00;;;22.40;;
42770;SDS011;28426;42.872;25.314;2023-12-28T14:11:03;44.13;;;20.45;;
42770;SDS011;28426;42.872;25.314;2023-12-28T14:13:40;55.90;;;22.35;;
42770;SDS011;28426;42.872;25.314;2023-12-28T14:16:18;45.13;;;18.92;;
42770;SDS011;28426;42.872;25.314;2023-12-28T14:18:53;39.75;;;21.25;;
42770;SDS011;28426;42.872;25.314;2023-12-28T14:21:33;41.28;;;21.77;;
42770;SDS011;28426;42.872;25.314;2023-12-28T14:24:10;61.95;;;23.23;;
42770;SDS011;28426;42.872;25.314;2023-12-28T14:26:45;56.92;;;27.77;;
42770;SDS011;28426;42.872;25.314;2023-12-28T14:29:26;62.60;;;27.98;;
42770;SDS011;28426;42.872;25.314;2023-12-28T14:32:02;67.38;;;29.20;;
42770;SDS011;28426;42.872;25.314;2023-12-28T14:34:35;41.10;;;24.13;;
42770;SDS011;28426;42.872;25.314;2023-12-28T14:37:14;57.13;;;26.30;;
42770;SDS011;28426;42.872;25.314;2023-12-28T14:39:51;55.60;;;30.40;;
42770;SDS011;28426;42.872;25.314;2023-12-28T14:42:26;58.80;;;30.35;;
42770;SDS011;28426;42.872;25.314;2023-12-28T14:45:04;66.05;;;32.25;;
42770;SDS011;28426;42.872;25.314;2023-12-28T14:47:39;46.13;;;27.80;;
42770;SDS011;28426;42.872;25.314;2023-12-28T14:50:15;55.78;;;29.80;;
42770;SDS011;28426;42.872;25.314;2023-12-28T14:52:54;51.60;;;25.98;;
42770;SDS011;28426;42.872;25.314;2023-12-28T14:55:32;56.42;;;27.17;;
42770;SDS011;28426;42.872;25.314;2023-12-28T14:58:07;47.03;;;25.40;;
42770;SDS011;28426;42.872;25.314;2023-12-28T15:00:41;39.22;;;22.13;;
42770;SDS011;28426;42.872;25.314;2023-12-28T15:03:16;49.33;;;25.20;;
42770;SDS011;28426;42.872;25.314;2023-12-28T15:05:52;47.30;;;26.27;;
42770;SDS011;28426;42.872;25.314;2023-12-28T15:08:31;41.53;;;20.98;;